Terminal Aerodrome Forecast
Issued by NWS

Home | Current Version | Previous Version | Text Only | Print | Product List | Glossary On
Versions: 1 2 3 4 5 6 7 8 9 10 11 12
759
FTUS44 KJAN 082332
TAFHKS
TAF
KHKS 082332Z 0900/0924 29009KT P6SM SCT100
     FM091500 31015G24KT P6SM SCT060=

USA.gov is the U.S. government's official web portal to all federal, state and local government web resources and services.